sensor_id;sensor_type;location;lat;lon;timestamp;temperature;humidity
12386;DHT22;6257;57.634;18.310;2022-12-18T00:01:05;0.30;99.90
12386;DHT22;6257;57.634;18.310;2022-12-18T00:03:33;0.40;99.90
12386;DHT22;6257;57.634;18.310;2022-12-18T00:06:02;0.40;99.90
12386;DHT22;6257;57.634;18.310;2022-12-18T00:08:29;0.40;99.90
12386;DHT22;6257;57.634;18.310;2022-12-18T00:11:03;0.30;99.90
12386;DHT22;6257;57.634;18.310;2022-12-18T00:13:30;1.50;99.90
12386;DHT22;6257;57.634;18.310;2022-12-18T00:16:01;0.40;99.90
12386;DHT22;6257;57.634;18.310;2022-12-18T00:18:29;0.40;99.90
12386;DHT22;6257;57.634;18.310;2022-12-18T00:20:59;0.40;99.90
12386;DHT22;6257;57.634;18.310;2022-12-18T00:23:28;0.30;99.90
12386;DHT22;6257;57.634;18.310;2022-12-18T00:25:59;0.30;99.90
12386;DHT22;6257;57.634;18.310;2022-12-18T00:28:27;0.30;99.90
12386;DHT22;6257;57.634;18.310;2022-12-18T00:31:00;0.30;99.90
12386;DHT22;6257;57.634;18.310;2022-12-18T00:33:28;0.40;99.90
12386;DHT22;6257;57.634;18.310;2022-12-18T00:35:59;0.40;99.90
12386;DHT22;6257;57.634;18.310;2022-12-18T00:38:28;0.30;99.90
12386;DHT22;6257;57.634;18.310;2022-12-18T00:40:55;0.30;99.90
12386;DHT22;6257;57.634;18.310;2022-12-18T00:43:23;0.40;99.90
12386;DHT22;6257;57.634;18.310;2022-12-18T00:45:49;0.30;99.90
12386;DHT22;6257;57.634;18.310;2022-12-18T00:48:16;0.40;99.90
12386;DHT22;6257;57.634;18.310;2022-12-18T00:50:43;0.50;99.90
12386;DHT22;6257;57.634;18.310;2022-12-18T00:53:10;0.60;99.90
12386;DHT22;6257;57.634;18.310;2022-12-18T00:55:39;0.50;99.90
12386;DHT22;6257;57.634;18.310;2022-12-18T00:58:06;0.60;99.90
12386;DHT22;6257;57.634;18.310;2022-12-18T01:00:33;0.60;99.90
12386;DHT22;6257;57.634;18.310;2022-12-18T01:03:00;0.60;99.90
12386;DHT22;6257;57.634;18.310;2022-12-18T01:05:28;0.70;99.90
12386;DHT22;6257;57.634;18.310;2022-12-18T01:07:55;0.70;99.90
12386;DHT22;6257;57.634;18.310;2022-12-18T01:10:23;0.70;99.90
12386;DHT22;6257;57.634;18.310;2022-12-18T01:12:52;0.70;99.90
12386;DHT22;6257;57.634;18.310;2022-12-18T01:15:19;0.70;99.90
12386;DHT22;6257;57.634;18.310;2022-12-18T01:17:46;0.70;99.90
12386;DHT22;6257;57.634;18.310;2022-12-18T01:20:14;1.20;99.90
12386;DHT22;6257;57.634;18.310;2022-12-18T01:22:41;1.30;99.90
12386;DHT22;6257;57.634;18.310;2022-12-18T01:25:08;0.70;99.90
12386;DHT22;6257;57.634;18.310;2022-12-18T01:27:35;0.70;99.90
12386;DHT22;6257;57.634;18.310;2022-12-18T01:30:05;0.60;99.90
12386;DHT22;6257;57.634;18.310;2022-12-18T01:32:33;0.60;99.90
12386;DHT22;6257;57.634;18.310;2022-12-18T01:35:00;0.50;99.90
12386;DHT22;6257;57.634;18.310;2022-12-18T01:37:27;0.50;99.90
12386;DHT22;6257;57.634;18.310;2022-12-18T01:39:54;0.40;99.90
12386;DHT22;6257;57.634;18.310;2022-12-18T01:42:21;0.50;99.90
12386;DHT22;6257;57.634;18.310;2022-12-18T01:44:56;0.30;99.90
12386;DHT22;6257;57.634;18.310;2022-12-18T01:47:27;0.30;99.90
12386;DHT22;6257;57.634;18.310;2022-12-18T01:49:56;0.20;99.90
12386;DHT22;6257;57.634;18.310;2022-12-18T01:52:25;0.30;99.90
12386;DHT22;6257;57.634;18.310;2022-12-18T01:54:53;0.50;99.90
12386;DHT22;6257;57.634;18.310;2022-12-18T01:57:22;0.00;99.90
12386;DHT22;6257;57.634;18.310;2022-12-18T01:59:52;0.00;99.90
12386;DHT22;6257;57.634;18.310;2022-12-18T02:02:21;0.00;99.90
12386;DHT22;6257;57.634;18.310;2022-12-18T02:04:50;0.00;99.90
12386;DHT22;6257;57.634;18.310;2022-12-18T02:07:23;0.10;99.90
12386;DHT22;6257;57.634;18.310;2022-12-18T02:09:57;0.00;99.90
12386;DHT22;6257;57.634;18.310;2022-12-18T02:12:29;0.00;99.90
12386;DHT22;6257;57.634;18.310;2022-12-18T02:15:02;0.00;99.90
12386;DHT22;6257;57.634;18.310;2022-12-18T02:17:36;0.00;99.90
12386;DHT22;6257;57.634;18.310;2022-12-18T02:20:12;0.00;99.90
12386;DHT22;6257;57.634;18.310;2022-12-18T02:22:50;0.20;99.90
12386;DHT22;6257;57.634;18.310;2022-12-18T02:25:32;0.10;99.90
12386;DHT22;6257;57.634;18.310;2022-12-18T02:28:07;0.10;99.90
12386;DHT22;6257;57.634;18.310;2022-12-18T02:30:38;0.10;99.90
12386;DHT22;6257;57.634;18.310;2022-12-18T02:33:08;0.10;99.90
12386;DHT22;6257;57.634;18.310;2022-12-18T02:35:36;0.30;99.90
12386;DHT22;6257;57.634;18.310;2022-12-18T02:38:05;0.10;99.90
12386;DHT22;6257;57.634;18.310;2022-12-18T02:40:33;0.30;99.90
12386;DHT22;6257;57.634;18.310;2022-12-18T02:43:09;0.30;99.90
12386;DHT22;6257;57.634;18.310;2022-12-18T02:45:46;0.20;99.90
12386;DHT22;6257;57.634;18.310;2022-12-18T02:48:13;0.30;99.90
12386;DHT22;6257;57.634;18.310;2022-12-18T02:50:47;0.30;99.90
12386;DHT22;6257;57.634;18.310;2022-12-18T02:53:22;0.30;99.90
12386;DHT22;6257;57.634;18.310;2022-12-18T02:55:59;0.30;99.90
12386;DHT22;6257;57.634;18.310;2022-12-18T02:58:34;0.30;99.90
12386;DHT22;6257;57.634;18.310;2022-12-18T03:01:09;0.30;99.90
12386;DHT22;6257;57.634;18.310;2022-12-18T03:03:43;0.30;99.90
12386;DHT22;6257;57.634;18.310;2022-12-18T03:06:15;0.30;99.90
12386;DHT22;6257;57.634;18.310;2022-12-18T03:08:48;0.30;99.90
12386;DHT22;6257;57.634;18.310;2022-12-18T03:11:16;0.30;99.90
12386;DHT22;6257;57.634;18.310;2022-12-18T03:14:06;0.30;99.90
12386;DHT22;6257;57.634;18.310;2022-12-18T03:16:34;0.40;99.90
12386;DHT22;6257;57.634;18.310;2022-12-18T03:19:05;0.40;99.90
12386;DHT22;6257;57.634;18.310;2022-12-18T03:21:36;0.40;99.90
12386;DHT22;6257;57.634;18.310;2022-12-18T03:24:07;0.40;99.90
12386;DHT22;6257;57.634;18.310;2022-12-18T03:26:35;0.40;99.90
12386;DHT22;6257;57.634;18.310;2022-12-18T03:29:09;0.40;99.90
12386;DHT22;6257;57.634;18.310;2022-12-18T03:31:37;0.50;99.90
12386;DHT22;6257;57.634;18.310;2022-12-18T03:34:11;0.50;99.90
12386;DHT22;6257;57.634;18.310;2022-12-18T03:36:40;0.50;99.90
12386;DHT22;6257;57.634;18.310;2022-12-18T03:39:08;0.50;99.90
12386;DHT22;6257;57.634;18.310;2022-12-18T03:41:43;0.40;99.90
12386;DHT22;6257;57.634;18.310;2022-12-18T03:44:14;0.40;99.90
12386;DHT22;6257;57.634;18.310;2022-12-18T03:46:51;0.40;99.90
12386;DHT22;6257;57.634;18.310;2022-12-18T03:49:25;0.30;99.90
12386;DHT22;6257;57.634;18.310;2022-12-18T03:51:56;0.30;99.90
12386;DHT22;6257;57.634;18.310;2022-12-18T03:54:25;0.30;99.90
12386;DHT22;6257;57.634;18.310;2022-12-18T03:56:57;0.20;99.90
12386;DHT22;6257;57.634;18.310;2022-12-18T03:59:27;0.20;99.90
12386;DHT22;6257;57.634;18.310;2022-12-18T04:01:57;0.20;99.90
12386;DHT22;6257;57.634;18.310;2022-12-18T04:04:27;0.20;99.90
12386;DHT22;6257;57.634;18.310;2022-12-18T04:06:55;0.20;99.90
12386;DHT22;6257;57.634;18.310;2022-12-18T04:09:23;0.30;99.90
12386;DHT22;6257;57.634;18.310;2022-12-18T04:11:51;0.30;99.90
12386;DHT22;6257;57.634;18.310;2022-12-18T04:14:19;0.40;99.90
12386;DHT22;6257;57.634;18.310;2022-12-18T04:16:48;0.40;99.90
12386;DHT22;6257;57.634;18.310;2022-12-18T04:19:15;0.40;99.90
12386;DHT22;6257;57.634;18.310;2022-12-18T04:21:43;0.50;99.90
12386;DHT22;6257;57.634;18.310;2022-12-18T04:24:10;0.50;99.90
12386;DHT22;6257;57.634;18.310;2022-12-18T04:26:37;0.50;99.90
12386;DHT22;6257;57.634;18.310;2022-12-18T04:29:05;0.60;99.90
12386;DHT22;6257;57.634;18.310;2022-12-18T04:31:32;0.50;99.90
12386;DHT22;6257;57.634;18.310;2022-12-18T04:34:01;0.60;99.90
12386;DHT22;6257;57.634;18.310;2022-12-18T04:36:28;0.60;99.90
12386;DHT22;6257;57.634;18.310;2022-12-18T04:38:55;0.60;99.90
12386;DHT22;6257;57.634;18.310;2022-12-18T04:41:23;0.60;99.90
12386;DHT22;6257;57.634;18.310;2022-12-18T04:43:50;0.60;99.90
12386;DHT22;6257;57.634;18.310;2022-12-18T04:46:17;0.60;99.90
12386;DHT22;6257;57.634;18.310;2022-12-18T04:48:45;0.60;99.90
12386;DHT22;6257;57.634;18.310;2022-12-18T04:51:15;0.60;99.90
12386;DHT22;6257;57.634;18.310;2022-12-18T04:53:42;0.60;99.90
12386;DHT22;6257;57.634;18.310;2022-12-18T04:56:11;1.20;99.90
12386;DHT22;6257;57.634;18.310;2022-12-18T04:58:40;0.60;99.90
12386;DHT22;6257;57.634;18.310;2022-12-18T05:01:08;0.60;99.90
12386;DHT22;6257;57.634;18.310;2022-12-18T05:03:35;0.60;99.90
12386;DHT22;6257;57.634;18.310;2022-12-18T05:06:03;0.50;99.90
12386;DHT22;6257;57.634;18.310;2022-12-18T05:08:32;0.50;99.90
12386;DHT22;6257;57.634;18.310;2022-12-18T05:11:00;0.50;99.90
12386;DHT22;6257;57.634;18.310;2022-12-18T05:13:28;0.50;99.90
12386;DHT22;6257;57.634;18.310;2022-12-18T05:15:55;0.50;99.90
12386;DHT22;6257;57.634;18.310;2022-12-18T05:18:23;0.50;99.90
12386;DHT22;6257;57.634;18.310;2022-12-18T05:20:50;0.60;99.90
12386;DHT22;6257;57.634;18.310;2022-12-18T05:23:19;0.60;99.90
12386;DHT22;6257;57.634;18.310;2022-12-18T05:25:51;0.60;99.90
12386;DHT22;6257;57.634;18.310;2022-12-18T05:28:18;0.60;99.90
12386;DHT22;6257;57.634;18.310;2022-12-18T05:30:48;0.70;99.90
12386;DHT22;6257;57.634;18.310;2022-12-18T05:33:16;0.70;99.90
12386;DHT22;6257;57.634;18.310;2022-12-18T05:35:44;0.80;99.90
12386;DHT22;6257;57.634;18.310;2022-12-18T05:38:11;0.80;99.90
12386;DHT22;6257;57.634;18.310;2022-12-18T05:40:41;0.80;99.90
12386;DHT22;6257;57.634;18.310;2022-12-18T05:43:11;0.80;99.90
12386;DHT22;6257;57.634;18.310;2022-12-18T05:45:38;0.80;99.90
12386;DHT22;6257;57.634;18.310;2022-12-18T05:48:06;0.90;99.90
12386;DHT22;6257;57.634;18.310;2022-12-18T05:50:34;0.90;99.90
12386;DHT22;6257;57.634;18.310;2022-12-18T05:53:01;0.90;99.90
12386;DHT22;6257;57.634;18.310;2022-12-18T05:55:29;0.90;99.90
12386;DHT22;6257;57.634;18.310;2022-12-18T05:57:56;0.80;99.90
12386;DHT22;6257;57.634;18.310;2022-12-18T06:00:25;0.80;99.90
12386;DHT22;6257;57.634;18.310;2022-12-18T06:02:52;0.80;99.90
12386;DHT22;6257;57.634;18.310;2022-12-18T06:05:19;0.90;99.90
12386;DHT22;6257;57.634;18.310;2022-12-18T06:07:46;1.00;99.90
12386;DHT22;6257;57.634;18.310;2022-12-18T06:10:13;1.00;99.90
12386;DHT22;6257;57.634;18.310;2022-12-18T06:12:40;1.00;99.90
12386;DHT22;6257;57.634;18.310;2022-12-18T06:15:08;1.00;99.90
12386;DHT22;6257;57.634;18.310;2022-12-18T06:17:37;1.00;99.90
12386;DHT22;6257;57.634;18.310;2022-12-18T06:20:05;1.00;99.90
12386;DHT22;6257;57.634;18.310;2022-12-18T06:22:32;1.00;99.90
12386;DHT22;6257;57.634;18.310;2022-12-18T06:25:00;1.30;99.90
12386;DHT22;6257;57.634;18.310;2022-12-18T06:27:28;1.10;99.90
12386;DHT22;6257;57.634;18.310;2022-12-18T06:29:55;1.10;99.90
12386;DHT22;6257;57.634;18.310;2022-12-18T06:32:22;1.10;99.90
12386;DHT22;6257;57.634;18.310;2022-12-18T06:34:51;1.10;99.90
12386;DHT22;6257;57.634;18.310;2022-12-18T06:37:18;1.10;99.90
12386;DHT22;6257;57.634;18.310;2022-12-18T06:39:45;1.20;99.90
12386;DHT22;6257;57.634;18.310;2022-12-18T06:42:13;1.20;99.90
12386;DHT22;6257;57.634;18.310;2022-12-18T06:44:40;1.40;99.90
12386;DHT22;6257;57.634;18.310;2022-12-18T06:47:07;1.40;99.90
12386;DHT22;6257;57.634;18.310;2022-12-18T06:49:34;1.20;99.90
12386;DHT22;6257;57.634;18.310;2022-12-18T06:52:02;1.20;99.90
12386;DHT22;6257;57.634;18.310;2022-12-18T06:54:30;1.20;99.90
12386;DHT22;6257;57.634;18.310;2022-12-18T06:57:23;1.20;99.90
12386;DHT22;6257;57.634;18.310;2022-12-18T07:00:06;1.20;99.90
12386;DHT22;6257;57.634;18.310;2022-12-18T07:02:34;1.30;99.90
12386;DHT22;6257;57.634;18.310;2022-12-18T07:05:02;1.30;99.90
12386;DHT22;6257;57.634;18.310;2022-12-18T07:07:30;1.30;99.90
12386;DHT22;6257;57.634;18.310;2022-12-18T07:10:00;1.50;99.90
12386;DHT22;6257;57.634;18.310;2022-12-18T07:12:27;1.40;99.90
12386;DHT22;6257;57.634;18.310;2022-12-18T07:14:54;1.40;99.90
12386;DHT22;6257;57.634;18.310;2022-12-18T07:17:21;1.40;99.90
12386;DHT22;6257;57.634;18.310;2022-12-18T07:19:48;1.50;99.90
12386;DHT22;6257;57.634;18.310;2022-12-18T07:22:15;1.60;99.90
12386;DHT22;6257;57.634;18.310;2022-12-18T07:24:45;1.60;99.90
12386;DHT22;6257;57.634;18.310;2022-12-18T07:29:40;1.50;99.90
12386;DHT22;6257;57.634;18.310;2022-12-18T07:32:07;1.90;99.90
12386;DHT22;6257;57.634;18.310;2022-12-18T07:37:02;1.40;99.90
12386;DHT22;6257;57.634;18.310;2022-12-18T07:39:31;1.50;99.90
12386;DHT22;6257;57.634;18.310;2022-12-18T07:41:59;1.60;99.90
12386;DHT22;6257;57.634;18.310;2022-12-18T07:44:44;1.70;99.90
12386;DHT22;6257;57.634;18.310;2022-12-18T07:47:11;1.70;99.90
12386;DHT22;6257;57.634;18.310;2022-12-18T07:52:07;1.80;99.90
12386;DHT22;6257;57.634;18.310;2022-12-18T07:54:37;1.90;99.90
12386;DHT22;6257;57.634;18.310;2022-12-18T07:57:07;1.90;99.90
12386;DHT22;6257;57.634;18.310;2022-12-18T07:59:35;2.00;99.90
12386;DHT22;6257;57.634;18.310;2022-12-18T08:02:02;2.20;99.90
12386;DHT22;6257;57.634;18.310;2022-12-18T08:04:29;2.10;99.90
12386;DHT22;6257;57.634;18.310;2022-12-18T08:06:57;2.10;99.90
12386;DHT22;6257;57.634;18.310;2022-12-18T08:09:24;2.20;99.90
12386;DHT22;6257;57.634;18.310;2022-12-18T08:11:51;2.20;99.90
12386;DHT22;6257;57.634;18.310;2022-12-18T08:14:19;2.20;99.90
12386;DHT22;6257;57.634;18.310;2022-12-18T08:16:46;2.20;99.90
12386;DHT22;6257;57.634;18.310;2022-12-18T08:19:14;2.20;99.90
12386;DHT22;6257;57.634;18.310;2022-12-18T08:21:41;2.20;99.90
12386;DHT22;6257;57.634;18.310;2022-12-18T08:24:09;2.30;99.90
12386;DHT22;6257;57.634;18.310;2022-12-18T08:26:36;2.30;99.90
12386;DHT22;6257;57.634;18.310;2022-12-18T08:29:06;2.40;99.90
12386;DHT22;6257;57.634;18.310;2022-12-18T08:31:35;2.40;99.90
12386;DHT22;6257;57.634;18.310;2022-12-18T08:34:05;2.40;99.90
12386;DHT22;6257;57.634;18.310;2022-12-18T08:36:34;2.40;99.90
12386;DHT22;6257;57.634;18.310;2022-12-18T08:41:29;2.50;99.90
12386;DHT22;6257;57.634;18.310;2022-12-18T08:43:59;2.50;99.90
12386;DHT22;6257;57.634;18.310;2022-12-18T08:46:47;2.70;99.90
12386;DHT22;6257;57.634;18.310;2022-12-18T08:49:19;2.50;99.90
12386;DHT22;6257;57.634;18.310;2022-12-18T08:51:48;2.50;99.90
12386;DHT22;6257;57.634;18.310;2022-12-18T08:54:24;2.50;99.90
12386;DHT22;6257;57.634;18.310;2022-12-18T08:56:51;2.50;99.90
12386;DHT22;6257;57.634;18.310;2022-12-18T08:59:55;2.50;99.90
12386;DHT22;6257;57.634;18.310;2022-12-18T09:02:28;2.50;99.90
12386;DHT22;6257;57.634;18.310;2022-12-18T09:07:57;2.50;99.90
12386;DHT22;6257;57.634;18.310;2022-12-18T09:10:30;2.50;99.90
12386;DHT22;6257;57.634;18.310;2022-12-18T09:13:15;2.50;99.90
12386;DHT22;6257;57.634;18.310;2022-12-18T09:16:13;2.50;99.90
12386;DHT22;6257;57.634;18.310;2022-12-18T09:19:49;2.50;99.90
12386;DHT22;6257;57.634;18.310;2022-12-18T09:22:45;2.70;99.90
12386;DHT22;6257;57.634;18.310;2022-12-18T09:25:46;2.50;99.90
12386;DHT22;6257;57.634;18.310;2022-12-18T09:28:18;2.40;99.90
12386;DHT22;6257;57.634;18.310;2022-12-18T09:30:51;2.60;99.90
12386;DHT22;6257;57.634;18.310;2022-12-18T09:33:32;2.50;99.90
12386;DHT22;6257;57.634;18.310;2022-12-18T09:36:05;2.40;99.90
12386;DHT22;6257;57.634;18.310;2022-12-18T09:38:35;2.50;99.90
12386;DHT22;6257;57.634;18.310;2022-12-18T09:41:05;2.60;99.90
12386;DHT22;6257;57.634;18.310;2022-12-18T09:43:40;2.50;99.90
12386;DHT22;6257;57.634;18.310;2022-12-18T09:46:17;2.50;99.90
12386;DHT22;6257;57.634;18.310;2022-12-18T09:49:04;2.50;99.90
12386;DHT22;6257;57.634;18.310;2022-12-18T09:51:57;2.50;99.90
12386;DHT22;6257;57.634;18.310;2022-12-18T09:54:59;2.50;99.90
12386;DHT22;6257;57.634;18.310;2022-12-18T09:58:02;2.50;99.90
12386;DHT22;6257;57.634;18.310;2022-12-18T10:00:45;2.40;99.90
12386;DHT22;6257;57.634;18.310;2022-12-18T10:03:16;1.20;99.90
12386;DHT22;6257;57.634;18.310;2022-12-18T10:06:08;2.60;99.90
12386;DHT22;6257;57.634;18.310;2022-12-18T10:09:07;2.50;99.90
12386;DHT22;6257;57.634;18.310;2022-12-18T10:12:17;2.50;99.90
12386;DHT22;6257;57.634;18.310;2022-12-18T10:14:57;2.50;99.90
12386;DHT22;6257;57.634;18.310;2022-12-18T10:17:41;2.50;99.90
12386;DHT22;6257;57.634;18.310;2022-12-18T10:20:37;2.70;99.90
12386;DHT22;6257;57.634;18.310;2022-12-18T10:26:35;2.60;99.90
12386;DHT22;6257;57.634;18.310;2022-12-18T10:32:38;2.60;99.90
12386;DHT22;6257;57.634;18.310;2022-12-18T10:43:29;2.60;99.90
12386;DHT22;6257;57.634;18.310;2022-12-18T10:46:15;2.50;99.90
12386;DHT22;6257;57.634;18.310;2022-12-18T10:48:52;2.50;99.90
12386;DHT22;6257;57.634;18.310;2022-12-18T10:54:34;2.40;99.90
12386;DHT22;6257;57.634;18.310;2022-12-18T11:12:49;1.70;99.90
12386;DHT22;6257;57.634;18.310;2022-12-18T11:15:19;2.20;99.90
12386;DHT22;6257;57.634;18.310;2022-12-18T11:17:48;2.30;99.90
12386;DHT22;6257;57.634;18.310;2022-12-18T11:20:24;2.30;99.90
12386;DHT22;6257;57.634;18.310;2022-12-18T11:23:10;2.40;99.90
12386;DHT22;6257;57.634;18.310;2022-12-18T11:25:38;2.30;99.90
12386;DHT22;6257;57.634;18.310;2022-12-18T11:28:25;2.30;99.90
12386;DHT22;6257;57.634;18.310;2022-12-18T11:31:20;2.40;99.90
12386;DHT22;6257;57.634;18.310;2022-12-18T11:34:09;2.40;99.90
12386;DHT22;6257;57.634;18.310;2022-12-18T11:36:52;2.40;99.90
12386;DHT22;6257;57.634;18.310;2022-12-18T11:39:32;2.40;99.90
12386;DHT22;6257;57.634;18.310;2022-12-18T11:42:08;2.40;99.90
12386;DHT22;6257;57.634;18.310;2022-12-18T11:44:59;2.40;99.90
12386;DHT22;6257;57.634;18.310;2022-12-18T11:47:34;2.30;99.90
12386;DHT22;6257;57.634;18.310;2022-12-18T11:50:24;2.20;99.90
12386;DHT22;6257;57.634;18.310;2022-12-18T11:52:52;2.20;99.90
12386;DHT22;6257;57.634;18.310;2022-12-18T11:55:28;2.20;99.90
12386;DHT22;6257;57.634;18.310;2022-12-18T11:58:03;2.30;99.90
12386;DHT22;6257;57.634;18.310;2022-12-18T12:00:37;2.30;99.90
12386;DHT22;6257;57.634;18.310;2022-12-18T12:03:24;2.20;99.90
12386;DHT22;6257;57.634;18.310;2022-12-18T12:06:02;2.20;99.90
12386;DHT22;6257;57.634;18.310;2022-12-18T12:08:40;2.20;99.90
12386;DHT22;6257;57.634;18.310;2022-12-18T12:11:16;2.20;99.90
12386;DHT22;6257;57.634;18.310;2022-12-18T12:13:52;2.10;99.90
12386;DHT22;6257;57.634;18.310;2022-12-18T12:16:28;2.10;99.90
12386;DHT22;6257;57.634;18.310;2022-12-18T12:19:15;2.50;99.90
12386;DHT22;6257;57.634;18.310;2022-12-18T12:21:49;2.10;99.90
12386;DHT22;6257;57.634;18.310;2022-12-18T12:24:35;2.10;99.90
12386;DHT22;6257;57.634;18.310;2022-12-18T12:27:11;2.00;99.90
12386;DHT22;6257;57.634;18.310;2022-12-18T12:29:49;2.00;99.90
12386;DHT22;6257;57.634;18.310;2022-12-18T12:32:46;2.00;99.90
12386;DHT22;6257;57.634;18.310;2022-12-18T12:35:28;2.00;99.90
12386;DHT22;6257;57.634;18.310;2022-12-18T12:38:05;2.00;99.90
12386;DHT22;6257;57.634;18.310;2022-12-18T12:40:43;2.00;99.90
12386;DHT22;6257;57.634;18.310;2022-12-18T12:43:21;1.90;99.90
12386;DHT22;6257;57.634;18.310;2022-12-18T12:45:51;1.90;99.90
12386;DHT22;6257;57.634;18.310;2022-12-18T12:48:36;1.90;99.90
12386;DHT22;6257;57.634;18.310;2022-12-18T12:51:11;1.90;99.90
12386;DHT22;6257;57.634;18.310;2022-12-18T12:53:39;1.90;99.90
12386;DHT22;6257;57.634;18.310;2022-12-18T12:56:09;1.90;99.90
12386;DHT22;6257;57.634;18.310;2022-12-18T12:58:50;1.80;99.90
12386;DHT22;6257;57.634;18.310;2022-12-18T13:01:27;1.80;99.90
12386;DHT22;6257;57.634;18.310;2022-12-18T13:04:03;1.80;99.90
12386;DHT22;6257;57.634;18.310;2022-12-18T13:06:40;1.80;99.90
12386;DHT22;6257;57.634;18.310;2022-12-18T13:09:09;1.80;99.90
12386;DHT22;6257;57.634;18.310;2022-12-18T13:11:38;1.80;99.90
12386;DHT22;6257;57.634;18.310;2022-12-18T13:14:32;1.80;99.90
12386;DHT22;6257;57.634;18.310;2022-12-18T13:17:32;1.80;99.90
12386;DHT22;6257;57.634;18.310;2022-12-18T13:20:18;1.80;99.90
12386;DHT22;6257;57.634;18.310;2022-12-18T13:22:47;1.80;99.90
12386;DHT22;6257;57.634;18.310;2022-12-18T13:25:32;1.80;99.90
12386;DHT22;6257;57.634;18.310;2022-12-18T13:28:11;1.80;99.90
12386;DHT22;6257;57.634;18.310;2022-12-18T13:30:44;1.80;99.90
12386;DHT22;6257;57.634;18.310;2022-12-18T13:33:36;1.80;99.90
12386;DHT22;6257;57.634;18.310;2022-12-18T13:36:13;1.80;99.90
12386;DHT22;6257;57.634;18.310;2022-12-18T13:38:41;1.80;99.90
12386;DHT22;6257;57.634;18.310;2022-12-18T13:41:26;1.90;99.90
12386;DHT22;6257;57.634;18.310;2022-12-18T13:43:54;1.80;99.90
12386;DHT22;6257;57.634;18.310;2022-12-18T13:46:27;1.90;99.90
12386;DHT22;6257;57.634;18.310;2022-12-18T13:48:58;1.90;99.90
12386;DHT22;6257;57.634;18.310;2022-12-18T13:51:29;1.90;99.90
12386;DHT22;6257;57.634;18.310;2022-12-18T13:53:58;1.90;99.90
12386;DHT22;6257;57.634;18.310;2022-12-18T13:56:27;1.90;99.90
12386;DHT22;6257;57.634;18.310;2022-12-18T13:59:14;1.90;99.90
12386;DHT22;6257;57.634;18.310;2022-12-18T14:01:44;1.90;99.90
12386;DHT22;6257;57.634;18.310;2022-12-18T14:06:40;2.00;99.90
12386;DHT22;6257;57.634;18.310;2022-12-18T14:09:14;2.00;99.90
12386;DHT22;6257;57.634;18.310;2022-12-18T14:11:46;1.90;99.90
12386;DHT22;6257;57.634;18.310;2022-12-18T14:14:14;1.90;99.90
12386;DHT22;6257;57.634;18.310;2022-12-18T14:16:41;1.90;99.90
12386;DHT22;6257;57.634;18.310;2022-12-18T14:19:12;2.00;99.90
12386;DHT22;6257;57.634;18.310;2022-12-18T14:21:45;2.00;99.90
12386;DHT22;6257;57.634;18.310;2022-12-18T14:24:15;2.00;99.90
12386;DHT22;6257;57.634;18.310;2022-12-18T14:26:43;2.00;99.90
12386;DHT22;6257;57.634;18.310;2022-12-18T14:29:25;2.00;99.90
12386;DHT22;6257;57.634;18.310;2022-12-18T14:32:12;2.00;99.90
12386;DHT22;6257;57.634;18.310;2022-12-18T14:34:42;2.00;99.90
12386;DHT22;6257;57.634;18.310;2022-12-18T14:37:12;2.00;99.90
12386;DHT22;6257;57.634;18.310;2022-12-18T14:39:39;2.00;99.90
12386;DHT22;6257;57.634;18.310;2022-12-18T14:42:10;2.00;99.90
12386;DHT22;6257;57.634;18.310;2022-12-18T14:44:38;2.00;99.90
12386;DHT22;6257;57.634;18.310;2022-12-18T14:47:05;2.00;99.90
12386;DHT22;6257;57.634;18.310;2022-12-18T14:49:33;1.90;99.90
12386;DHT22;6257;57.634;18.310;2022-12-18T14:52:03;1.90;99.90
12386;DHT22;6257;57.634;18.310;2022-12-18T14:54:32;1.90;99.90
12386;DHT22;6257;57.634;18.310;2022-12-18T14:57:02;1.90;99.90
12386;DHT22;6257;57.634;18.310;2022-12-18T14:59:30;1.90;99.90
12386;DHT22;6257;57.634;18.310;2022-12-18T15:02:01;1.90;99.90
12386;DHT22;6257;57.634;18.310;2022-12-18T15:04:32;1.90;99.90
12386;DHT22;6257;57.634;18.310;2022-12-18T15:07:13;1.80;99.90
12386;DHT22;6257;57.634;18.310;2022-12-18T15:09:43;1.90;99.90
12386;DHT22;6257;57.634;18.310;2022-12-18T15:12:24;1.90;99.90
12386;DHT22;6257;57.634;18.310;2022-12-18T15:14:52;1.90;99.90
12386;DHT22;6257;57.634;18.310;2022-12-18T15:17:21;1.90;99.90
12386;DHT22;6257;57.634;18.310;2022-12-18T15:19:51;2.00;99.90
12386;DHT22;6257;57.634;18.310;2022-12-18T15:22:25;2.00;99.90
12386;DHT22;6257;57.634;18.310;2022-12-18T15:24:55;2.00;99.90
12386;DHT22;6257;57.634;18.310;2022-12-18T15:27:26;2.00;99.90
12386;DHT22;6257;57.634;18.310;2022-12-18T15:32:44;2.00;99.90
12386;DHT22;6257;57.634;18.310;2022-12-18T15:35:14;2.00;99.90
12386;DHT22;6257;57.634;18.310;2022-12-18T15:37:42;2.00;99.90
12386;DHT22;6257;57.634;18.310;2022-12-18T15:40:13;2.00;99.90
12386;DHT22;6257;57.634;18.310;2022-12-18T15:42:41;2.00;99.90
12386;DHT22;6257;57.634;18.310;2022-12-18T15:45:26;2.00;99.90
12386;DHT22;6257;57.634;18.310;2022-12-18T15:47:53;2.00;99.90
12386;DHT22;6257;57.634;18.310;2022-12-18T15:50:21;2.00;99.90
12386;DHT22;6257;57.634;18.310;2022-12-18T15:52:49;2.00;99.90
12386;DHT22;6257;57.634;18.310;2022-12-18T15:55:21;2.00;99.90
12386;DHT22;6257;57.634;18.310;2022-12-18T15:58:07;2.00;99.90
12386;DHT22;6257;57.634;18.310;2022-12-18T16:00:36;2.00;99.90
12386;DHT22;6257;57.634;18.310;2022-12-18T16:03:05;2.00;99.90
12386;DHT22;6257;57.634;18.310;2022-12-18T16:05:32;2.00;99.90
12386;DHT22;6257;57.634;18.310;2022-12-18T16:07:59;2.00;99.90
12386;DHT22;6257;57.634;18.310;2022-12-18T16:10:28;2.00;99.90
12386;DHT22;6257;57.634;18.310;2022-12-18T16:12:55;2.00;99.90
12386;DHT22;6257;57.634;18.310;2022-12-18T16:15:22;2.00;99.90
12386;DHT22;6257;57.634;18.310;2022-12-18T16:17:49;2.00;99.90
12386;DHT22;6257;57.634;18.310;2022-12-18T16:20:19;1.90;99.90
12386;DHT22;6257;57.634;18.310;2022-12-18T16:22:47;2.00;99.90
12386;DHT22;6257;57.634;18.310;2022-12-18T16:25:21;2.00;99.90
12386;DHT22;6257;57.634;18.310;2022-12-18T16:27:51;2.00;99.90
12386;DHT22;6257;57.634;18.310;2022-12-18T16:30:20;2.00;99.90
12386;DHT22;6257;57.634;18.310;2022-12-18T16:32:48;2.00;99.90
12386;DHT22;6257;57.634;18.310;2022-12-18T16:35:16;2.00;99.90
12386;DHT22;6257;57.634;18.310;2022-12-18T16:37:43;2.00;99.90
12386;DHT22;6257;57.634;18.310;2022-12-18T16:40:12;2.00;99.90
12386;DHT22;6257;57.634;18.310;2022-12-18T16:42:41;1.90;99.90
12386;DHT22;6257;57.634;18.310;2022-12-18T16:45:12;1.90;99.90
12386;DHT22;6257;57.634;18.310;2022-12-18T16:47:40;1.90;99.90
12386;DHT22;6257;57.634;18.310;2022-12-18T16:50:08;1.90;99.90
12386;DHT22;6257;57.634;18.310;2022-12-18T16:52:36;1.90;99.90
12386;DHT22;6257;57.634;18.310;2022-12-18T16:55:04;1.90;99.90
12386;DHT22;6257;57.634;18.310;2022-12-18T16:57:31;1.90;99.90
12386;DHT22;6257;57.634;18.310;2022-12-18T16:59:58;2.00;99.90
12386;DHT22;6257;57.634;18.310;2022-12-18T17:02:27;2.00;99.90
12386;DHT22;6257;57.634;18.310;2022-12-18T17:04:55;2.00;99.90
12386;DHT22;6257;57.634;18.310;2022-12-18T17:07:22;2.00;99.90
12386;DHT22;6257;57.634;18.310;2022-12-18T17:09:49;1.90;99.90